Disclaimer

Please do not use the information listed here in-flight or in-navigation, as they are not provided to us by the airports but are provided by volunteers, so they might be outdated.

Search


Regions


Airport information page

Radio informations:
Tower (TWR) - 118.7 MHz

Airport informations:
Latitude: 12° 07' 51.76" N
Longitude: 068° 16' 06.64" W
Elevation: 20 feet - 6 meters
Operating hours: Remarks
Operating agency: Civil government, landing fees and diplomatic clearance may be required
Timezone: UTC-4
Fuel: Jet A1, without icing nhibitor.

Runway information:
10/28 - 9449 x 148 feet< - >2880 x 45 meters

Recent METARs:
TNCB 181555Z AUTO 10019KT 080V150 9999 FEW022/// 28/22 Q1015
TNCB 181555Z AUTO 10019KT 080V150 9999 FEW022/// 28/22 Q1015
TNCB 181655Z 10017KT 070V130 9999 FEW024 SCT027 29/21 Q1014

Airport on the map: